createdAt,value
2017-07-25T00:00:07.912Z,77.11
2017-07-25T00:01:18.431Z,75.77
2017-07-25T00:02:28.702Z,75.39
2017-07-25T00:03:38.356Z,75.2
2017-07-25T00:04:48.614Z,74.91
2017-07-25T00:05:58.890Z,74.52
2017-07-25T00:07:09.464Z,73.95
2017-07-25T00:08:19.730Z,74.33
2017-07-25T00:09:30.002Z,74.05
2017-07-25T00:10:39.655Z,73.38
2017-07-25T00:11:49.636Z,73.09
2017-07-25T00:13:00.166Z,72.61
2017-07-25T00:14:10.455Z,72.99
2017-07-25T00:15:20.718Z,72.52
2017-07-25T00:16:30.682Z,72.42
2017-07-25T00:17:40.649Z,72.42
2017-07-25T00:18:51.168Z,72.13
2017-07-25T00:20:00.827Z,72.03
2017-07-25T00:21:11.106Z,71.84
2017-07-25T00:22:21.081Z,71.46
2017-07-25T00:23:31.368Z,70.5
2017-07-25T00:24:41.908Z,70.41
2017-07-25T00:25:52.186Z,70.31
2017-07-25T00:27:02.151Z,70.21
2017-07-25T00:28:12.444Z,70.03
2017-07-25T00:29:22.739Z,70.21
2017-07-25T00:30:33.265Z,70.5
2017-07-25T00:31:43.242Z,70.7
2017-07-25T00:32:52.592Z,70.6
2017-07-25T00:34:02.873Z,70.79
2017-07-25T00:35:13.149Z,70.5
2017-07-25T00:36:23.681Z,70.6
2017-07-25T00:37:33.653Z,70.7
2017-07-25T00:38:43.612Z,70.6
2017-07-25T00:39:53.588Z,70.6
2017-07-25T00:41:03.545Z,70.89
2017-07-25T00:42:14.062Z,70.89
2017-07-25T00:43:24.332Z,70.7
2017-07-25T00:44:34.596Z,70.5
2017-07-25T00:45:44.884Z,70.79
2017-07-25T00:46:55.171Z,70.31
2017-07-25T00:48:05.703Z,70.79
2017-07-25T00:49:15.673Z,70.79
2017-07-25T00:50:25.617Z,70.21
2017-07-25T00:51:35.888Z,70.03
2017-07-25T00:52:46.168Z,69.74
2017-07-25T00:53:56.377Z,68.3
2017-07-25T00:55:06.663Z,66.96
2017-07-25T00:56:16.340Z,66.67
2017-07-25T00:57:26.309Z,66.29
2017-07-25T00:58:36.597Z,66.48
2017-07-25T00:59:47.130Z,66.19
2017-07-25T01:00:57.403Z,65.81
2017-07-25T01:02:07.682Z,66
2017-07-25T01:03:17.954Z,65.52
2017-07-25T01:04:27.913Z,65.42
2017-07-25T01:05:37.817Z,65.42
2017-07-25T01:06:47.796Z,65.52
2017-07-25T01:07:58.073Z,65.33
2017-07-25T01:09:08.334Z,64.56
2017-07-25T01:10:18.281Z,64.95
2017-07-25T01:11:28.818Z,64.28
2017-07-25T01:12:38.806Z,64.09
2017-07-25T01:13:49.080Z,64.09
2017-07-25T01:14:59.364Z,63.99
2017-07-25T01:16:09.653Z,0
2017-07-25T01:17:19.887Z,0
2017-07-25T01:18:30.160Z,63.6
2017-07-25T01:19:40.468Z,63.51
2017-07-25T01:20:50.737Z,63.51
2017-07-25T01:22:00.701Z,63.03
2017-07-25T01:23:11.225Z,63.22
2017-07-25T01:24:21.501Z,63.03
2017-07-25T01:25:31.457Z,63.42
2017-07-25T01:26:41.745Z,63.03
2017-07-25T01:27:52.024Z,62.74
2017-07-25T01:29:02.551Z,62.84
2017-07-25T01:30:12.532Z,62.36
2017-07-25T01:31:22.802Z,62.26
2017-07-25T01:32:33.094Z,62.26
2017-07-25T01:33:43.398Z,62.17
2017-07-25T01:34:53.999Z,61.98
2017-07-25T01:36:04.264Z,61.79
2017-07-25T01:37:13.924Z,62.07
2017-07-25T01:38:24.186Z,61.6
2017-07-25T01:39:34.469Z,61.31
2017-07-25T01:40:44.997Z,61.11
2017-07-25T01:41:54.969Z,61.31
2017-07-25T01:43:04.634Z,61.02
2017-07-25T01:44:14.901Z,61.02
2017-07-25T01:45:25.186Z,60.73
2017-07-25T01:46:35.729Z,60.54
2017-07-25T01:47:45.371Z,60.25
2017-07-25T01:48:55.336Z,60.54
2017-07-25T01:50:05.296Z,60.54
2017-07-25T01:51:15.569Z,60.35
2017-07-25T01:52:25.776Z,60.64
2017-07-25T01:53:36.063Z,60.54
2017-07-25T01:54:46.028Z,60.54
2017-07-25T01:55:56.306Z,60.64
2017-07-25T01:57:05.957Z,60.25
2017-07-25T01:58:16.169Z,60.64
2017-07-25T01:59:26.140Z,60.16
2017-07-25T02:00:36.424Z,60.06
2017-07-25T02:01:46.699Z,59.77
2017-07-25T02:02:56.966Z,59.87
2017-07-25T02:04:07.518Z,59.77
2017-07-25T02:05:17.798Z,59.87
2017-07-25T02:06:28.078Z,60.06
2017-07-25T02:07:38.356Z,59.87
2017-07-25T02:08:48.625Z,59.97
2017-07-25T02:09:58.869Z,65.52
2017-07-25T02:11:09.167Z,68.11
2017-07-25T02:12:19.449Z,68.49
2017-07-25T02:13:29.424Z,68.78
2017-07-25T02:14:39.702Z,68.01
2017-07-25T02:15:49.904Z,68.21
2017-07-25T02:16:59.563Z,68.49
2017-07-25T02:18:09.829Z,68.21
2017-07-25T02:19:20.122Z,68.4
2017-07-25T02:20:30.404Z,68.97
2017-07-25T02:21:40.304Z,68.3
2017-07-25T02:22:50.277Z,68.59
2017-07-25T02:24:00.560Z,68.68
2017-07-25T02:25:10.214Z,68.49
2017-07-25T02:26:20.195Z,69.07
2017-07-25T02:27:30.403Z,68.21
2017-07-25T02:28:40.687Z,68.01
2017-07-25T02:29:50.955Z,67.15
2017-07-25T02:31:00.916Z,67.44
2017-07-25T02:32:10.902Z,66.77
2017-07-25T02:33:21.161Z,66.19
2017-07-25T02:34:31.455Z,65.52
2017-07-25T02:35:41.436Z,65.52
2017-07-25T02:36:51.090Z,65.62
2017-07-25T02:38:01.372Z,65.52
2017-07-25T02:39:11.899Z,65.33
2017-07-25T02:40:22.157Z,65.33
2017-07-25T02:41:32.702Z,64.76
2017-07-25T02:42:42.996Z,65.23
2017-07-25T02:43:53.260Z,65.23
2017-07-25T02:45:03.826Z,65.33
2017-07-25T02:46:13.799Z,65.23
2017-07-25T02:47:23.757Z,65.23
2017-07-25T02:48:34.034Z,65.05
2017-07-25T02:49:44.315Z,64.76
2017-07-25T02:50:54.835Z,64.66
2017-07-25T02:52:05.141Z,64.66
2017-07-25T02:53:15.430Z,64.76
2017-07-25T02:54:25.705Z,64.76
2017-07-25T02:55:35.043Z,64.66
2017-07-25T02:56:45.572Z,64.76
2017-07-25T02:57:54.929Z,65.14
2017-07-25T02:59:05.196Z,65.05
2017-07-25T03:00:15.463Z,64.95
2017-07-25T03:01:25.745Z,65.23
2017-07-25T03:02:36.264Z,65.14
2017-07-25T03:03:46.540Z,64.95
2017-07-25T03:04:56.823Z,65.05
2017-07-25T03:06:07.104Z,64.76
2017-07-25T03:07:17.065Z,64.95
2017-07-25T03:08:27.582Z,65.05
2017-07-25T03:09:37.550Z,64.85
2017-07-25T03:10:47.518Z,64.76
2017-07-25T03:11:57.799Z,64.76
2017-07-25T03:13:07.764Z,64.28
2017-07-25T03:14:18.370Z,64.56
2017-07-25T03:15:28.027Z,64.09
2017-07-25T03:16:38.307Z,64.18
2017-07-25T03:17:48.275Z,64.28
2017-07-25T03:18:57.923Z,64.28
2017-07-25T03:20:08.469Z,64.37
2017-07-25T03:21:18.436Z,64.18
2017-07-25T03:22:28.402Z,63.99
2017-07-25T03:23:38.684Z,63.48
2017-07-25T03:24:48.961Z,63.7
2017-07-25T03:25:59.485Z,64.37
2017-07-25T03:27:09.459Z,65.52
2017-07-25T03:28:19.727Z,65.52
2017-07-25T03:29:29.689Z,65.71
2017-07-25T03:30:39.656Z,65.52
2017-07-25T03:31:50.183Z,63.13
2017-07-25T03:33:00.447Z,63.6
2017-07-25T03:34:10.406Z,65.23
2017-07-25T03:35:20.382Z,66
2017-07-25T03:36:30.335Z,66.58
2017-07-25T03:37:40.854Z,67.54
2017-07-25T03:38:50.821Z,68.11
2017-07-25T03:40:01.101Z,68.21
2017-07-25T03:41:11.385Z,68.68
2017-07-25T03:42:21.655Z,69.17
2017-07-25T03:43:32.198Z,69.17
2017-07-25T03:44:42.160Z,69.35
2017-07-25T03:45:52.115Z,69.74
2017-07-25T03:47:02.385Z,69.83
2017-07-25T03:48:12.343Z,70.12
2017-07-25T03:49:22.870Z,70.21
2017-07-25T03:50:33.154Z,70.21
2017-07-25T03:51:42.809Z,72.03
2017-07-25T03:52:52.781Z,73.38
2017-07-25T03:54:03.043Z,73.66
2017-07-25T03:55:13.249Z,74.52
2017-07-25T03:56:22.912Z,74.58
2017-07-25T03:57:32.876Z,74.77
2017-07-25T03:58:43.147Z,74.87
2017-07-25T03:59:53.415Z,75.07
2017-07-25T04:01:03.948Z,75.45
2017-07-25T04:02:13.921Z,76.02
2017-07-25T04:03:23.877Z,79.08
2017-07-25T04:04:33.849Z,80.14
2017-07-25T04:05:44.122Z,80.9
2017-07-25T04:06:54.647Z,81.67
2017-07-25T04:08:04.925Z,83.49
2017-07-25T04:09:14.883Z,85.31
2017-07-25T04:10:25.184Z,88.95
2017-07-25T04:11:35.171Z,91.15
2017-07-25T04:12:45.711Z,92.68
2017-07-25T04:13:55.988Z,93.45
2017-07-25T04:15:05.967Z,94.21
2017-07-25T04:16:16.131Z,95.46
2017-07-25T04:17:26.106Z,95.65
2017-07-25T04:18:36.339Z,96.32
2017-07-25T04:19:46.624Z,96.03
2017-07-25T04:20:56.907Z,96.32
2017-07-25T04:22:07.176Z,97.09
2017-07-25T04:23:17.457Z,97.18
2017-07-25T04:24:27.660Z,98.05
2017-07-25T04:25:37.958Z,98.05
2017-07-25T04:26:47.931Z,97.75
2017-07-25T04:27:58.201Z,98.71
2017-07-25T04:29:08.187Z,97.85
2017-07-25T04:30:18.774Z,98.24
2017-07-25T04:31:28.753Z,98.05
2017-07-25T04:32:39.042Z,97.95
2017-07-25T04:33:48.693Z,97.66
2017-07-25T04:34:58.662Z,97.75
2017-07-25T04:36:08.274Z,97.85
2017-07-25T04:37:18.573Z,97.66
2017-07-25T04:38:28.827Z,98.14
2017-07-25T04:39:39.139Z,97.85
2017-07-25T04:40:49.112Z,97.85
2017-07-25T04:41:59.312Z,97.85
2017-07-25T04:43:09.287Z,97.85
2017-07-25T04:44:19.566Z,97.95
2017-07-25T04:45:29.846Z,97.75
2017-07-25T04:46:40.128Z,97.09
2017-07-25T04:47:50.664Z,97.28
2017-07-25T04:49:00.932Z,97.38
2017-07-25T04:50:11.209Z,96.99
2017-07-25T04:51:21.487Z,97.47
2017-07-25T04:52:31.776Z,97.09
2017-07-25T04:53:41.981Z,97.09
2017-07-25T04:54:51.634Z,97.28
2017-07-25T04:56:01.918Z,97.28
2017-07-25T04:57:11.869Z,97.38
2017-07-25T04:58:22.143Z,97.33
2017-07-25T04:59:32.673Z,97.38
2017-07-25T05:00:42.657Z,96.99
2017-07-25T05:01:52.631Z,97.13
2017-07-25T05:03:02.914Z,96.94
2017-07-25T05:04:12.898Z,96.94
2017-07-25T05:05:22.787Z,97.33
2017-07-25T05:06:33.070Z,96.84
2017-07-25T05:07:43.345Z,96.94
2017-07-25T05:08:53.620Z,97.13
2017-07-25T05:10:03.591Z,97.04
2017-07-25T05:11:14.130Z,96.94
2017-07-25T05:12:23.791Z,97.04
2017-07-25T05:13:34.065Z,96.27
2017-07-25T05:14:44.054Z,96.27
2017-07-25T05:15:54.033Z,96.08
2017-07-25T05:17:04.577Z,96.47
2017-07-25T05:18:14.874Z,96.94
2017-07-25T05:19:25.151Z,96.84
2017-07-25T05:20:35.111Z,96.84
2017-07-25T05:21:44.764Z,96.37
2017-07-25T05:22:55.281Z,96.37
2017-07-25T05:24:05.240Z,96.47
2017-07-25T05:25:15.519Z,96.27
2017-07-25T05:26:25.786Z,96.47
2017-07-25T05:27:35.764Z,96.08
2017-07-25T05:28:45.681Z,95.98
2017-07-25T05:29:55.345Z,95.89
2017-07-25T05:31:05.314Z,95.98
2017-07-25T05:32:15.601Z,96.08
2017-07-25T05:33:25.566Z,96.27
2017-07-25T05:34:35.846Z,96.47
2017-07-25T05:35:46.138Z,96.08
2017-07-25T05:36:56.427Z,96.37
2017-07-25T05:38:06.694Z,96.27
2017-07-25T05:39:16.642Z,96.94
2017-07-25T05:40:26.861Z,96.94
2017-07-25T05:41:37.125Z,97.13
2017-07-25T05:42:47.411Z,96.94
2017-07-25T05:43:57.368Z,96.84
2017-07-25T05:45:07.021Z,96.94
2017-07-25T05:46:16.930Z,96.75
2017-07-25T05:47:26.905Z,96.94
2017-07-25T05:48:37.174Z,97.52
2017-07-25T05:49:47.447Z,97.33
2017-07-25T05:50:57.418Z,97.18
2017-07-25T05:52:07.948Z,97.18
2017-07-25T05:53:17.901Z,97.42
2017-07-25T05:54:28.171Z,97.38
2017-07-25T05:55:38.161Z,97.56
2017-07-25T05:56:47.499Z,97.33
2017-07-25T05:57:58.034Z,97.23
2017-07-25T05:59:07.996Z,97.23
2017-07-25T06:00:17.964Z,97.13
2017-07-25T06:01:28.241Z,97.13
2017-07-25T06:02:38.213Z,98.09
2017-07-25T06:03:48.735Z,98.19
2017-07-25T06:04:58.718Z,97.8
2017-07-25T06:06:09.022Z,98
2017-07-25T06:07:19.003Z,98.09
2017-07-25T06:08:29.273Z,98.76
2017-07-25T06:09:39.814Z,98.57
2017-07-25T06:10:50.104Z,98.86
2017-07-25T06:11:59.762Z,95.51
2017-07-25T06:13:09.402Z,94.17
2017-07-25T06:14:19.688Z,93.59
2017-07-25T06:15:30.213Z,93.88
2017-07-25T06:16:40.489Z,93.88
2017-07-25T06:17:50.765Z,94.36
2017-07-25T06:19:00.758Z,94.26
2017-07-25T06:20:10.753Z,94.36
2017-07-25T06:21:21.292Z,94.07
2017-07-25T06:22:31.594Z,94.36
2017-07-25T06:23:41.905Z,94.17
2017-07-25T06:24:52.189Z,94.74
2017-07-25T06:26:02.461Z,94.45
2017-07-25T06:27:12.681Z,94.65
2017-07-25T06:28:22.963Z,94.74
2017-07-25T06:29:33.268Z,94.45
2017-07-25T06:30:43.559Z,94.55
2017-07-25T06:31:53.852Z,94.55
2017-07-25T06:33:04.087Z,95.03
2017-07-25T06:34:14.389Z,94.74
2017-07-25T06:35:24.357Z,94.65
2017-07-25T06:36:34.661Z,94.65
2017-07-25T06:37:44.956Z,94.45
2017-07-25T06:38:55.180Z,94.74
2017-07-25T06:40:05.471Z,94.55
2017-07-25T06:41:15.769Z,94.65
2017-07-25T06:42:26.088Z,94.74
2017-07-25T06:43:36.397Z,94.17
2017-07-25T06:44:46.916Z,95.03
2017-07-25T06:45:57.191Z,94.74
2017-07-25T06:47:06.860Z,95.03
2017-07-25T06:48:17.154Z,94.65
2017-07-25T06:49:27.441Z,95.51
2017-07-25T06:50:38.002Z,95.12
2017-07-25T06:51:47.993Z,94.93
2017-07-25T06:52:57.986Z,95.12
2017-07-25T06:54:07.971Z,94.93
2017-07-25T06:55:18.279Z,95.22
2017-07-25T06:56:28.810Z,95.12
2017-07-25T06:57:39.118Z,95.22
2017-07-25T06:58:49.419Z,95.41
2017-07-25T06:59:59.693Z,95.22
2017-07-25T07:01:09.995Z,95.31
2017-07-25T07:02:20.526Z,95.22
2017-07-25T07:03:30.502Z,95.7
2017-07-25T07:04:40.797Z,95.61
2017-07-25T07:05:51.080Z,95.79
2017-07-25T07:07:01.080Z,95.31
2017-07-25T07:08:11.617Z,95.22
2017-07-25T07:09:21.610Z,95.31
2017-07-25T07:10:31.903Z,95.41
2017-07-25T07:11:41.271Z,95.41
2017-07-25T07:12:51.227Z,95.41
2017-07-25T07:14:01.766Z,95.22
2017-07-25T07:15:12.059Z,95.22
2017-07-25T07:16:22.050Z,95.7
2017-07-25T07:17:32.358Z,95.7
2017-07-25T07:18:42.308Z,95.89
2017-07-25T07:19:52.542Z,95.61
2017-07-25T07:21:02.854Z,95.7
2017-07-25T07:22:13.120Z,96.18
2017-07-25T07:23:23.093Z,96.08
2017-07-25T07:24:33.048Z,97.23
2017-07-25T07:25:43.265Z,97.9
2017-07-25T07:26:53.222Z,98.28
2017-07-25T07:28:03.513Z,98.19
2017-07-25T07:29:13.489Z,98.28
2017-07-25T07:30:23.769Z,98.28
2017-07-25T07:31:34.296Z,98.38
2017-07-25T07:32:44.272Z,98.38
2017-07-25T07:33:54.550Z,98.19
2017-07-25T07:35:04.522Z,97.8
2017-07-25T07:36:14.526Z,97.9
2017-07-25T07:37:25.107Z,98.95
2017-07-25T07:38:34.787Z,98.47
2017-07-25T07:39:44.450Z,98.57
2017-07-25T07:40:54.726Z,98.76
2017-07-25T07:42:05.000Z,98.57
2017-07-25T07:43:15.529Z,98.66
2017-07-25T07:44:25.493Z,98.66
2017-07-25T07:45:35.774Z,98.66
2017-07-25T07:46:46.068Z,98.95
2017-07-25T07:47:56.029Z,98.47
2017-07-25T07:49:06.612Z,98.47
2017-07-25T07:50:16.919Z,98.86
2017-07-25T07:51:27.207Z,98.86
2017-07-25T07:52:37.501Z,98.86
2017-07-25T07:53:47.785Z,98.38
2017-07-25T07:54:58.318Z,98.57
2017-07-25T07:56:08.625Z,98.47
2017-07-25T07:57:18.595Z,98.47
2017-07-25T07:58:28.568Z,98.28
2017-07-25T07:59:38.852Z,98.09
2017-07-25T08:00:49.419Z,97.9
2017-07-25T08:01:59.438Z,97.04
2017-07-25T08:03:09.761Z,97.42
2017-07-25T08:04:20.054Z,96.94
2017-07-25T08:05:30.036Z,97.23
2017-07-25T08:06:40.263Z,97.04
2017-07-25T08:07:50.548Z,97.13
2017-07-25T08:09:00.845Z,97.08
2017-07-25T08:10:11.184Z,97.08
2017-07-25T08:11:21.172Z,96.89
2017-07-25T08:12:31.422Z,97.18
2017-07-25T08:13:41.406Z,97.18
2017-07-25T08:14:51.689Z,97.47
2017-07-25T08:16:01.978Z,97.47
2017-07-25T08:17:11.658Z,97.28
2017-07-25T08:18:21.888Z,97.37
2017-07-25T08:19:32.160Z,96.99
2017-07-25T08:20:42.450Z,97.28
2017-07-25T08:21:52.426Z,98.24
2017-07-25T08:23:02.395Z,98.52
2017-07-25T08:24:12.927Z,98.95
2017-07-25T08:25:23.217Z,98.95
2017-07-25T08:26:32.568Z,98.75
2017-07-25T08:27:42.857Z,98.95
2017-07-25T08:28:52.825Z,98.75
2017-07-25T08:30:03.350Z,98.95
2017-07-25T08:31:13.644Z,98.75
2017-07-25T08:32:23.930Z,98.66
2017-07-25T08:33:34.216Z,98.75
2017-07-25T08:34:44.184Z,99.24
2017-07-25T08:35:54.403Z,99.24
2017-07-25T08:37:04.070Z,98.85
2017-07-25T08:38:14.075Z,98.75
2017-07-25T08:39:24.365Z,98.57
2017-07-25T08:40:34.667Z,98.57
2017-07-25T08:41:45.226Z,98.85
2017-07-25T08:42:55.494Z,98.57
2017-07-25T08:44:05.781Z,99.04
2017-07-25T08:45:16.058Z,98.75
2017-07-25T08:46:26.353Z,98.85
2017-07-25T08:47:36.574Z,98.57
2017-07-25T08:48:46.842Z,98.66
2017-07-25T08:49:56.819Z,98.57
2017-07-25T08:51:06.801Z,98.71
2017-07-25T08:52:16.761Z,98.61
2017-07-25T08:53:27.293Z,98.9
2017-07-25T08:54:37.605Z,98.81
2017-07-25T08:55:47.890Z,98.9
2017-07-25T08:56:58.156Z,99
2017-07-25T08:58:08.423Z,98.9
2017-07-25T08:59:18.623Z,99
2017-07-25T09:00:28.580Z,99
2017-07-25T09:01:38.853Z,98.71
2017-07-25T09:02:49.134Z,98.9
2017-07-25T09:03:59.423Z,98.9
2017-07-25T09:05:09.658Z,98.9
2017-07-25T09:06:19.635Z,98.9
2017-07-25T09:07:29.912Z,98.95
2017-07-25T09:08:40.199Z,98.86
2017-07-25T09:09:50.177Z,98.57
2017-07-25T09:11:00.681Z,98.38
2017-07-25T09:12:10.654Z,98.86
2017-07-25T09:13:20.956Z,98.28
2017-07-25T09:14:30.964Z,98.38
2017-07-25T09:15:41.227Z,98.47
2017-07-25T09:16:51.558Z,98.57
2017-07-25T09:18:01.253Z,98.47
2017-07-25T09:19:11.244Z,98.47
2017-07-25T09:20:21.546Z,98.76
2017-07-25T09:21:31.528Z,98.57
2017-07-25T09:22:42.075Z,99.81
2017-07-25T09:23:52.042Z,99.99
2017-07-25T09:25:02.336Z,99.99
2017-07-25T09:26:12.636Z,99.99
2017-07-25T09:27:22.923Z,99.99
2017-07-25T09:28:33.161Z,99.99
2017-07-25T09:29:43.447Z,99.99
2017-07-25T09:30:53.733Z,99.99
2017-07-25T09:32:03.719Z,99.99
2017-07-25T09:33:14.038Z,99.99
2017-07-25T09:34:24.654Z,99.99
2017-07-25T09:35:34.978Z,99.99
2017-07-25T09:36:44.955Z,99.99
2017-07-25T09:37:55.248Z,99.99
2017-07-25T09:39:05.535Z,99.99
2017-07-25T09:40:16.088Z,99.99
2017-07-25T09:41:26.053Z,99.99
2017-07-25T09:42:36.334Z,99.99
2017-07-25T09:43:46.331Z,99.99
2017-07-25T09:44:56.309Z,99.99
2017-07-25T09:46:06.598Z,99.99
2017-07-25T09:47:16.874Z,99.99
2017-07-25T09:48:26.851Z,99.99
2017-07-25T09:49:37.126Z,99.99
2017-07-25T09:50:47.399Z,99.99
2017-07-25T09:51:57.921Z,99.99
2017-07-25T09:53:08.199Z,99.99
2017-07-25T09:54:18.495Z,99.99
2017-07-25T09:55:28.485Z,99.99
2017-07-25T09:56:38.787Z,99.99
2017-07-25T09:57:49.048Z,99.99
2017-07-25T09:58:58.720Z,99.99
2017-07-25T10:00:09.024Z,99.99
2017-07-25T10:01:19.298Z,99.99
2017-07-25T10:02:29.597Z,99.99
2017-07-25T10:03:40.132Z,99.99
2017-07-25T10:04:49.791Z,99.99
2017-07-25T10:05:59.769Z,99.99
2017-07-25T10:07:10.062Z,99.99
2017-07-25T10:08:20.052Z,99.99
2017-07-25T10:09:30.584Z,99.99
2017-07-25T10:10:40.877Z,99.99
2017-07-25T10:11:51.162Z,99.99
2017-07-25T10:13:01.121Z,99.99
2017-07-25T10:14:10.494Z,99.99
2017-07-25T10:15:21.091Z,99.99
2017-07-25T10:16:31.361Z,99.99
2017-07-25T10:17:41.654Z,99.99
2017-07-25T10:18:52.306Z,99.99
2017-07-25T10:20:02.617Z,99.99
2017-07-25T10:21:12.864Z,99.99
2017-07-25T10:22:23.174Z,99.99
2017-07-25T10:23:33.457Z,99.99
2017-07-25T10:24:43.440Z,99.99
2017-07-25T10:25:53.430Z,99.99
2017-07-25T10:27:03.663Z,99.99
2017-07-25T10:28:13.345Z,99.99
2017-07-25T10:29:23.650Z,99.99
2017-07-25T10:30:33.947Z,99.99
2017-07-25T10:31:43.928Z,99.99
2017-07-25T10:32:54.215Z,99.99
2017-07-25T10:34:04.502Z,99.99
2017-07-25T10:35:14.791Z,99.99
2017-07-25T10:36:24.782Z,99.99
2017-07-25T10:37:35.063Z,99.99
2017-07-25T10:38:45.278Z,99.99
2017-07-25T10:39:55.257Z,99.99
2017-07-25T10:41:05.554Z,99.99
2017-07-25T10:42:16.086Z,99.99
2017-07-25T10:43:25.767Z,99.99
2017-07-25T10:44:35.997Z,99.99
2017-07-25T10:45:46.280Z,99.99
2017-07-25T10:46:56.816Z,99.99
2017-07-25T10:48:07.113Z,99.99
2017-07-25T10:49:17.408Z,99.99
2017-07-25T10:50:27.644Z,99.99
2017-07-25T10:51:37.604Z,99.99
2017-07-25T10:52:47.565Z,99.99
2017-07-25T10:53:57.865Z,99.99
2017-07-25T10:55:08.153Z,99.99
2017-07-25T10:56:18.679Z,99.99
2017-07-25T10:57:28.650Z,99.99
2017-07-25T10:58:38.950Z,99.99
2017-07-25T10:59:48.919Z,99.99
2017-07-25T11:00:58.888Z,99.99
2017-07-25T11:02:08.828Z,99.99
2017-07-25T11:03:19.114Z,99.99
2017-07-25T11:04:29.092Z,99.99
2017-07-25T11:05:39.398Z,99.99
2017-07-25T11:06:49.368Z,99.99
2017-07-25T11:07:59.284Z,99.99
2017-07-25T11:09:09.261Z,99.99
2017-07-25T11:10:19.231Z,99.99
2017-07-25T11:11:29.523Z,99.99
2017-07-25T11:12:39.510Z,99.99
2017-07-25T11:13:50.043Z,99.99
2017-07-25T11:15:00.016Z,99.99
2017-07-25T11:16:09.989Z,99.99
2017-07-25T11:17:19.973Z,99.99
2017-07-25T11:18:29.967Z,99.99
2017-07-25T11:19:40.207Z,99.99
2017-07-25T11:20:50.527Z,99.99
2017-07-25T11:22:00.520Z,96.85
2017-07-25T11:23:10.809Z,96.61
2017-07-25T11:24:21.095Z,96.99
2017-07-25T11:25:31.648Z,99.99
2017-07-25T11:26:41.926Z,98.43
2017-07-25T11:27:52.216Z,97.96
2017-07-25T11:29:02.198Z,99.99
2017-07-25T11:30:12.496Z,99.99
2017-07-25T11:31:22.715Z,99.99
2017-07-25T11:32:32.993Z,99.99
2017-07-25T11:33:43.269Z,99.99
2017-07-25T11:34:53.241Z,99.73
2017-07-25T11:36:03.543Z,99.99
2017-07-25T11:37:14.103Z,99.99
2017-07-25T11:38:24.419Z,99.99
2017-07-25T11:39:34.407Z,99.99
2017-07-25T11:40:44.384Z,99.99
2017-07-25T11:41:54.362Z,99.99
2017-07-25T11:43:04.585Z,99.99
2017-07-25T11:44:14.874Z,99.73
2017-07-25T11:45:25.135Z,99.99
2017-07-25T11:46:35.147Z,99.99
2017-07-25T11:47:45.127Z,99.99
2017-07-25T11:48:55.339Z,99.99
2017-07-25T11:50:05.636Z,99.99
2017-07-25T11:51:15.605Z,99.99
2017-07-25T11:52:25.906Z,99.99
2017-07-25T11:53:36.205Z,99.99
2017-07-25T11:54:46.741Z,99.99
2017-07-25T11:55:56.722Z,99.99
2017-07-25T11:57:07.019Z,99.99
2017-07-25T11:58:17.305Z,99.99
2017-07-25T11:59:26.964Z,99.99
2017-07-25T12:00:37.195Z,99.99
2017-07-25T12:01:47.490Z,99.99
2017-07-25T12:02:57.776Z,99.99
2017-07-25T12:04:08.074Z,99.99
2017-07-25T12:05:18.361Z,99.99
2017-07-25T12:06:28.897Z,99.99
2017-07-25T12:07:39.217Z,99.99
2017-07-25T12:08:49.214Z,99.99
2017-07-25T12:09:59.201Z,99.99
2017-07-25T12:11:09.502Z,99.99
2017-07-25T12:12:20.037Z,99.99
2017-07-25T12:13:30.322Z,99.99
2017-07-25T12:14:40.295Z,99.99
2017-07-25T12:15:50.267Z,99.99
2017-07-25T12:17:00.548Z,99.99
2017-07-25T12:18:11.079Z,99.99
2017-07-25T12:19:21.048Z,99.99
2017-07-25T12:20:31.030Z,99.99
2017-07-25T12:21:40.997Z,99.99
2017-07-25T12:22:50.963Z,99.99
2017-07-25T12:24:01.498Z,99.99
2017-07-25T12:25:11.147Z,99.99
2017-07-25T12:26:21.118Z,99.99
2017-07-25T12:27:31.410Z,99.99
2017-07-25T12:28:41.684Z,98.58
2017-07-25T12:29:52.214Z,96.47
2017-07-25T12:31:02.488Z,98.24
2017-07-25T12:32:12.778Z,97.19
2017-07-25T12:33:22.743Z,97.57
2017-07-25T12:34:33.043Z,96.8
2017-07-25T12:35:43.576Z,95.45
2017-07-25T12:36:53.226Z,94.59
2017-07-25T12:38:03.517Z,94.78
2017-07-25T12:39:13.795Z,93.92
2017-07-25T12:40:23.445Z,94.59
2017-07-25T12:41:33.710Z,96.13
2017-07-25T12:42:43.674Z,96.7
2017-07-25T12:43:53.951Z,94.69
2017-07-25T12:45:03.919Z,93.54
2017-07-25T12:46:13.573Z,94.26
2017-07-25T12:47:24.110Z,93.58
2017-07-25T12:48:34.077Z,93.01
2017-07-25T12:49:44.367Z,93.39
2017-07-25T12:50:54.651Z,92.52
2017-07-25T12:52:04.640Z,94.35
2017-07-25T12:53:14.866Z,94.73
2017-07-25T12:54:25.129Z,95.31
2017-07-25T12:55:35.412Z,93.58
2017-07-25T12:56:45.718Z,93.19
2017-07-25T12:57:55.990Z,95.7
2017-07-25T12:59:06.207Z,95.89
2017-07-25T13:00:16.490Z,96.56
2017-07-25T13:01:25.833Z,95.12
2017-07-25T13:02:35.804Z,95.21
2017-07-25T13:03:46.094Z,95.31
2017-07-25T13:04:56.648Z,92.14
2017-07-25T13:06:06.927Z,94.54
2017-07-25T13:07:16.583Z,92.81
2017-07-25T13:08:26.868Z,94.26
2017-07-25T13:09:36.838Z,93.15
2017-07-25T13:10:47.061Z,93.44
2017-07-25T13:11:57.358Z,94.21
2017-07-25T13:13:07.628Z,93.25
2017-07-25T13:14:17.916Z,93.54
2017-07-25T13:15:28.187Z,93.97
2017-07-25T13:16:38.715Z,94.54
2017-07-25T13:17:48.995Z,94.45
2017-07-25T13:18:58.968Z,94.26
2017-07-25T13:20:09.226Z,95.7
2017-07-25T13:21:19.531Z,94.83
2017-07-25T13:22:30.050Z,95.7
2017-07-25T13:23:40.332Z,95.7
2017-07-25T13:24:50.290Z,94.88
2017-07-25T13:26:00.583Z,93.1
2017-07-25T13:27:10.572Z,94.16
2017-07-25T13:28:21.098Z,95.31
2017-07-25T13:29:31.398Z,95.41
2017-07-25T13:30:41.365Z,95.7
2017-07-25T13:31:51.656Z,96.85
2017-07-25T13:33:01.627Z,94.64
2017-07-25T13:34:11.863Z,94.07
2017-07-25T13:35:21.508Z,94.26
2017-07-25T13:36:31.472Z,94.45
2017-07-25T13:37:41.449Z,95.98
2017-07-25T13:38:51.437Z,95.12
2017-07-25T13:40:01.664Z,95.89
2017-07-25T13:41:11.955Z,96.08
2017-07-25T13:42:21.962Z,95.21
2017-07-25T13:43:31.964Z,96.75
2017-07-25T13:44:42.248Z,95.6
2017-07-25T13:45:52.463Z,95.21
2017-07-25T13:47:02.759Z,95.94
2017-07-25T13:48:13.034Z,95.03
2017-07-25T13:49:22.681Z,95.75
2017-07-25T13:50:32.972Z,95.94
2017-07-25T13:51:42.871Z,95.84
2017-07-25T13:52:53.161Z,95.7
2017-07-25T13:54:02.802Z,95.07
2017-07-25T13:55:13.092Z,95.07
2017-07-25T13:56:23.375Z,96.7
2017-07-25T13:57:33.918Z,96.13
2017-07-25T13:58:44.202Z,95.94
2017-07-25T13:59:54.185Z,95.75
2017-07-25T14:01:04.463Z,95.94
2017-07-25T14:02:14.758Z,96.42
2017-07-25T14:03:25.274Z,96.51
2017-07-25T14:04:35.254Z,97.76
2017-07-25T14:05:45.551Z,98.77
2017-07-25T14:06:55.511Z,98.1
2017-07-25T14:08:05.815Z,98.29
2017-07-25T14:09:16.039Z,97.61
2017-07-25T14:10:26.003Z,97.81
2017-07-25T14:11:35.955Z,97.14
2017-07-25T14:12:46.240Z,98.1
2017-07-25T14:13:56.526Z,97.81
2017-07-25T14:15:07.110Z,97.91
2017-07-25T14:16:17.403Z,98.48
2017-07-25T14:17:27.680Z,98.29
2017-07-25T14:18:37.641Z,98.1
2017-07-25T14:19:47.944Z,98.58
2017-07-25T14:20:58.456Z,98.1
2017-07-25T14:22:08.746Z,98.19
2017-07-25T14:23:19.044Z,98.1
2017-07-25T14:24:29.323Z,96.61
2017-07-25T14:25:39.612Z,95.84
2017-07-25T14:26:49.837Z,96.7
2017-07-25T14:27:59.811Z,97.19
2017-07-25T14:29:10.103Z,96.61
2017-07-25T14:30:20.100Z,95.65
2017-07-25T14:31:30.376Z,96.7
2017-07-25T14:32:40.282Z,96.42
2017-07-25T14:33:50.258Z,96.7
2017-07-25T14:35:00.238Z,96.56
2017-07-25T14:36:10.204Z,95.98
2017-07-25T14:37:20.472Z,95.5
2017-07-25T14:38:30.381Z,95.4
2017-07-25T14:39:40.352Z,95.5
2017-07-25T14:40:50.628Z,94.45
2017-07-25T14:42:00.895Z,92.52
2017-07-25T14:43:10.560Z,94.11
2017-07-25T14:44:21.122Z,93.34
2017-07-25T14:45:31.114Z,93.24
2017-07-25T14:46:41.393Z,93.53
2017-07-25T14:47:51.363Z,93.34
2017-07-25T14:49:01.315Z,93.24
2017-07-25T14:50:11.845Z,93.34
2017-07-25T14:51:22.116Z,93.29
2017-07-25T14:52:32.078Z,92.61
2017-07-25T14:53:42.365Z,92.13
2017-07-25T14:54:52.644Z,91.94
2017-07-25T14:56:02.876Z,91.08
2017-07-25T14:57:12.851Z,90.79
2017-07-25T14:58:23.159Z,89.78
2017-07-25T14:59:33.473Z,90.45
2017-07-25T15:00:43.754Z,91.99
2017-07-25T15:01:53.979Z,89.29
2017-07-25T15:03:04.277Z,89.87
2017-07-25T15:04:14.571Z,88.76
2017-07-25T15:05:24.885Z,88.09
2017-07-25T15:06:35.187Z,87.32